sensor_id;sensor_type;location;lat;lon;timestamp;temperature;humidity
17845;DHT22;9047;53.486;10.218;2023-02-01T00:00:41;5.60;99.90
17845;DHT22;9047;53.486;10.218;2023-02-01T00:03:09;5.50;99.90
17845;DHT22;9047;53.486;10.218;2023-02-01T00:05:38;5.50;99.90
17845;DHT22;9047;53.486;10.218;2023-02-01T00:08:05;5.40;99.90
17845;DHT22;9047;53.486;10.218;2023-02-01T00:10:34;5.40;99.90
17845;DHT22;9047;53.486;10.218;2023-02-01T00:13:01;5.30;99.90
17845;DHT22;9047;53.486;10.218;2023-02-01T00:15:32;5.30;99.90
17845;DHT22;9047;53.486;10.218;2023-02-01T00:17:59;5.20;99.90
17845;DHT22;9047;53.486;10.218;2023-02-01T00:20:27;5.30;99.90
17845;DHT22;9047;53.486;10.218;2023-02-01T00:22:54;5.30;99.90
17845;DHT22;9047;53.486;10.218;2023-02-01T00:25:22;5.40;99.90
17845;DHT22;9047;53.486;10.218;2023-02-01T00:27:49;5.40;99.90
17845;DHT22;9047;53.486;10.218;2023-02-01T00:30:17;5.40;99.90
17845;DHT22;9047;53.486;10.218;2023-02-01T00:32:45;5.40;99.90
17845;DHT22;9047;53.486;10.218;2023-02-01T00:35:16;5.40;99.90
17845;DHT22;9047;53.486;10.218;2023-02-01T00:37:43;5.40;99.90
17845;DHT22;9047;53.486;10.218;2023-02-01T00:40:12;5.50;99.90
17845;DHT22;9047;53.486;10.218;2023-02-01T00:42:40;5.50;99.90
17845;DHT22;9047;53.486;10.218;2023-02-01T00:45:08;5.50;99.90
17845;DHT22;9047;53.486;10.218;2023-02-01T00:47:35;5.60;99.90
17845;DHT22;9047;53.486;10.218;2023-02-01T00:50:05;5.60;99.90
17845;DHT22;9047;53.486;10.218;2023-02-01T00:52:34;5.70;99.90
17845;DHT22;9047;53.486;10.218;2023-02-01T00:55:03;5.80;99.90
17845;DHT22;9047;53.486;10.218;2023-02-01T00:57:31;5.80;99.90
17845;DHT22;9047;53.486;10.218;2023-02-01T00:59:58;5.90;99.90
17845;DHT22;9047;53.486;10.218;2023-02-01T01:02:26;5.90;99.90
17845;DHT22;9047;53.486;10.218;2023-02-01T01:04:53;5.90;99.90
17845;DHT22;9047;53.486;10.218;2023-02-01T01:07:22;5.90;99.90
17845;DHT22;9047;53.486;10.218;2023-02-01T01:09:49;6.00;99.90
17845;DHT22;9047;53.486;10.218;2023-02-01T01:12:16;6.00;99.90
17845;DHT22;9047;53.486;10.218;2023-02-01T01:14:45;6.10;99.90
17845;DHT22;9047;53.486;10.218;2023-02-01T01:17:12;6.00;99.90
17845;DHT22;9047;53.486;10.218;2023-02-01T01:19:39;6.00;99.90
17845;DHT22;9047;53.486;10.218;2023-02-01T01:22:06;6.10;99.90
17845;DHT22;9047;53.486;10.218;2023-02-01T01:24:35;6.10;99.90
17845;DHT22;9047;53.486;10.218;2023-02-01T01:27:05;6.10;99.90
17845;DHT22;9047;53.486;10.218;2023-02-01T01:29:32;6.10;99.90
17845;DHT22;9047;53.486;10.218;2023-02-01T01:31:59;6.10;99.90
17845;DHT22;9047;53.486;10.218;2023-02-01T01:34:27;6.10;99.90
17845;DHT22;9047;53.486;10.218;2023-02-01T01:36:53;6.10;99.90
17845;DHT22;9047;53.486;10.218;2023-02-01T01:39:20;6.10;99.90
17845;DHT22;9047;53.486;10.218;2023-02-01T01:41:50;6.10;99.90
17845;DHT22;9047;53.486;10.218;2023-02-01T01:44:56;6.10;99.90
17845;DHT22;9047;53.486;10.218;2023-02-01T01:47:24;6.10;99.90
17845;DHT22;9047;53.486;10.218;2023-02-01T01:49:52;6.10;99.90
17845;DHT22;9047;53.486;10.218;2023-02-01T01:52:20;6.20;99.90
17845;DHT22;9047;53.486;10.218;2023-02-01T01:54:49;6.20;99.90
17845;DHT22;9047;53.486;10.218;2023-02-01T01:57:23;6.20;99.90
17845;DHT22;9047;53.486;10.218;2023-02-01T01:59:56;6.20;99.90
17845;DHT22;9047;53.486;10.218;2023-02-01T02:02:25;6.20;99.90
17845;DHT22;9047;53.486;10.218;2023-02-01T02:04:52;6.30;99.90
17845;DHT22;9047;53.486;10.218;2023-02-01T02:07:23;6.30;99.90
17845;DHT22;9047;53.486;10.218;2023-02-01T02:09:52;6.30;99.90
17845;DHT22;9047;53.486;10.218;2023-02-01T02:12:25;6.30;99.90
17845;DHT22;9047;53.486;10.218;2023-02-01T02:14:52;6.30;99.90
17845;DHT22;9047;53.486;10.218;2023-02-01T02:17:36;6.30;99.90
17845;DHT22;9047;53.486;10.218;2023-02-01T02:20:52;6.30;99.90
17845;DHT22;9047;53.486;10.218;2023-02-01T02:23:40;6.30;99.90
17845;DHT22;9047;53.486;10.218;2023-02-01T02:26:37;6.30;99.90
17845;DHT22;9047;53.486;10.218;2023-02-01T02:32:47;6.30;99.90
17845;DHT22;9047;53.486;10.218;2023-02-01T02:35:26;6.30;99.90
17845;DHT22;9047;53.486;10.218;2023-02-01T02:38:05;6.30;99.90
17845;DHT22;9047;53.486;10.218;2023-02-01T02:40:42;6.20;99.90
17845;DHT22;9047;53.486;10.218;2023-02-01T02:43:16;6.10;99.90
17845;DHT22;9047;53.486;10.218;2023-02-01T02:46:07;6.10;99.90
17845;DHT22;9047;53.486;10.218;2023-02-01T02:49:02;6.10;99.90
17845;DHT22;9047;53.486;10.218;2023-02-01T02:51:40;6.00;99.90
17845;DHT22;9047;53.486;10.218;2023-02-01T02:54:29;6.00;99.90
17845;DHT22;9047;53.486;10.218;2023-02-01T02:57:19;6.00;99.90
17845;DHT22;9047;53.486;10.218;2023-02-01T03:00:08;6.00;99.90
17845;DHT22;9047;53.486;10.218;2023-02-01T03:02:58;5.90;99.90
17845;DHT22;9047;53.486;10.218;2023-02-01T03:05:46;5.90;99.90
17845;DHT22;9047;53.486;10.218;2023-02-01T03:08:18;5.90;99.90
17845;DHT22;9047;53.486;10.218;2023-02-01T03:10:50;5.80;99.90
17845;DHT22;9047;53.486;10.218;2023-02-01T03:13:25;5.80;99.90
17845;DHT22;9047;53.486;10.218;2023-02-01T03:16:01;5.80;99.90
17845;DHT22;9047;53.486;10.218;2023-02-01T03:18:36;5.80;99.90
17845;DHT22;9047;53.486;10.218;2023-02-01T03:21:08;5.80;99.90
17845;DHT22;9047;53.486;10.218;2023-02-01T03:23:41;5.80;99.90
17845;DHT22;9047;53.486;10.218;2023-02-01T03:26:13;5.80;99.90
17845;DHT22;9047;53.486;10.218;2023-02-01T03:28:44;5.80;99.90
17845;DHT22;9047;53.486;10.218;2023-02-01T03:31:13;5.80;99.90
17845;DHT22;9047;53.486;10.218;2023-02-01T03:33:41;5.80;99.90
17845;DHT22;9047;53.486;10.218;2023-02-01T03:36:15;5.80;99.90
17845;DHT22;9047;53.486;10.218;2023-02-01T03:38:50;5.70;99.90
17845;DHT22;9047;53.486;10.218;2023-02-01T03:41:23;5.70;99.90
17845;DHT22;9047;53.486;10.218;2023-02-01T03:43:57;5.80;99.90
17845;DHT22;9047;53.486;10.218;2023-02-01T03:46:30;5.60;99.90
17845;DHT22;9047;53.486;10.218;2023-02-01T03:49:01;5.50;99.90
17845;DHT22;9047;53.486;10.218;2023-02-01T03:51:30;5.40;99.90
17845;DHT22;9047;53.486;10.218;2023-02-01T03:54:02;5.30;99.90
17845;DHT22;9047;53.486;10.218;2023-02-01T03:56:31;5.20;99.90
17845;DHT22;9047;53.486;10.218;2023-02-01T03:58:59;5.10;99.90
17845;DHT22;9047;53.486;10.218;2023-02-01T04:01:27;5.00;99.90
17845;DHT22;9047;53.486;10.218;2023-02-01T04:03:55;4.90;99.90
17845;DHT22;9047;53.486;10.218;2023-02-01T04:06:22;4.80;99.90
17845;DHT22;9047;53.486;10.218;2023-02-01T04:08:49;4.80;99.90
17845;DHT22;9047;53.486;10.218;2023-02-01T04:11:18;4.70;99.90
17845;DHT22;9047;53.486;10.218;2023-02-01T04:13:45;4.70;99.90
17845;DHT22;9047;53.486;10.218;2023-02-01T04:16:12;4.70;99.90
17845;DHT22;9047;53.486;10.218;2023-02-01T04:18:39;4.70;99.90
17845;DHT22;9047;53.486;10.218;2023-02-01T04:21:08;4.70;99.90
17845;DHT22;9047;53.486;10.218;2023-02-01T04:23:35;4.90;99.90
17845;DHT22;9047;53.486;10.218;2023-02-01T04:26:04;4.80;99.90
17845;DHT22;9047;53.486;10.218;2023-02-01T04:28:32;4.80;99.90
17845;DHT22;9047;53.486;10.218;2023-02-01T04:30:59;4.90;99.90
17845;DHT22;9047;53.486;10.218;2023-02-01T04:33:27;4.90;99.90
17845;DHT22;9047;53.486;10.218;2023-02-01T04:35:54;4.90;99.90
17845;DHT22;9047;53.486;10.218;2023-02-01T04:38:21;5.00;99.90
17845;DHT22;9047;53.486;10.218;2023-02-01T04:40:48;4.90;99.90
17845;DHT22;9047;53.486;10.218;2023-02-01T04:43:17;4.90;99.90
17845;DHT22;9047;53.486;10.218;2023-02-01T04:45:48;5.00;99.90
17845;DHT22;9047;53.486;10.218;2023-02-01T04:48:16;5.00;99.90
17845;DHT22;9047;53.486;10.218;2023-02-01T04:50:44;4.90;99.90
17845;DHT22;9047;53.486;10.218;2023-02-01T04:53:13;4.90;99.90
17845;DHT22;9047;53.486;10.218;2023-02-01T04:55:41;4.90;99.90
17845;DHT22;9047;53.486;10.218;2023-02-01T04:58:07;4.90;99.90
17845;DHT22;9047;53.486;10.218;2023-02-01T05:00:35;5.00;99.90
17845;DHT22;9047;53.486;10.218;2023-02-01T05:03:05;4.90;99.90
17845;DHT22;9047;53.486;10.218;2023-02-01T05:05:32;5.00;99.90
17845;DHT22;9047;53.486;10.218;2023-02-01T05:08:02;4.90;99.90
17845;DHT22;9047;53.486;10.218;2023-02-01T05:10:30;4.90;99.90
17845;DHT22;9047;53.486;10.218;2023-02-01T05:12:57;4.90;99.90
17845;DHT22;9047;53.486;10.218;2023-02-01T05:15:41;4.90;99.90
17845;DHT22;9047;53.486;10.218;2023-02-01T05:18:10;4.90;99.90
17845;DHT22;9047;53.486;10.218;2023-02-01T05:20:38;4.80;99.90
17845;DHT22;9047;53.486;10.218;2023-02-01T05:23:06;4.70;99.90
17845;DHT22;9047;53.486;10.218;2023-02-01T05:25:34;4.70;99.90
17845;DHT22;9047;53.486;10.218;2023-02-01T05:28:02;4.60;99.90
17845;DHT22;9047;53.486;10.218;2023-02-01T05:30:29;4.40;99.90
17845;DHT22;9047;53.486;10.218;2023-02-01T05:32:57;4.40;99.90
17845;DHT22;9047;53.486;10.218;2023-02-01T05:35:26;4.20;99.90
17845;DHT22;9047;53.486;10.218;2023-02-01T05:37:54;4.10;99.90
17845;DHT22;9047;53.486;10.218;2023-02-01T05:40:21;4.00;99.90
17845;DHT22;9047;53.486;10.218;2023-02-01T05:42:50;3.90;99.90
17845;DHT22;9047;53.486;10.218;2023-02-01T05:45:18;3.80;99.90
17845;DHT22;9047;53.486;10.218;2023-02-01T05:47:45;3.70;99.90
17845;DHT22;9047;53.486;10.218;2023-02-01T05:50:11;3.70;99.90
17845;DHT22;9047;53.486;10.218;2023-02-01T05:52:40;3.60;99.90
17845;DHT22;9047;53.486;10.218;2023-02-01T05:55:10;3.60;99.90
17845;DHT22;9047;53.486;10.218;2023-02-01T05:57:36;3.50;99.90
17845;DHT22;9047;53.486;10.218;2023-02-01T06:00:04;3.50;99.90
17845;DHT22;9047;53.486;10.218;2023-02-01T06:02:32;3.50;99.90
17845;DHT22;9047;53.486;10.218;2023-02-01T06:04:59;3.40;99.90
17845;DHT22;9047;53.486;10.218;2023-02-01T06:07:28;3.40;99.90
17845;DHT22;9047;53.486;10.218;2023-02-01T06:09:57;3.40;99.90
17845;DHT22;9047;53.486;10.218;2023-02-01T06:12:24;3.40;99.90
17845;DHT22;9047;53.486;10.218;2023-02-01T06:14:59;3.40;99.90
17845;DHT22;9047;53.486;10.218;2023-02-01T06:17:29;3.30;99.90
17845;DHT22;9047;53.486;10.218;2023-02-01T06:19:57;3.30;99.90
17845;DHT22;9047;53.486;10.218;2023-02-01T06:22:30;3.30;99.90
17845;DHT22;9047;53.486;10.218;2023-02-01T06:25:04;3.30;99.90
17845;DHT22;9047;53.486;10.218;2023-02-01T06:27:41;3.30;99.90
17845;DHT22;9047;53.486;10.218;2023-02-01T06:30:24;3.30;99.90
17845;DHT22;9047;53.486;10.218;2023-02-01T06:33:01;3.30;99.90
17845;DHT22;9047;53.486;10.218;2023-02-01T06:35:30;3.30;99.90
17845;DHT22;9047;53.486;10.218;2023-02-01T06:38:04;3.30;99.90
17845;DHT22;9047;53.486;10.218;2023-02-01T06:40:40;3.30;99.90
17845;DHT22;9047;53.486;10.218;2023-02-01T06:43:11;3.40;99.90
17845;DHT22;9047;53.486;10.218;2023-02-01T06:45:38;3.40;99.90
17845;DHT22;9047;53.486;10.218;2023-02-01T06:48:09;3.40;99.90
17845;DHT22;9047;53.486;10.218;2023-02-01T06:50:37;3.50;99.90
17845;DHT22;9047;53.486;10.218;2023-02-01T06:53:12;3.60;99.90
17845;DHT22;9047;53.486;10.218;2023-02-01T06:56:01;3.70;99.90
17845;DHT22;9047;53.486;10.218;2023-02-01T06:58:30;3.80;99.90
17845;DHT22;9047;53.486;10.218;2023-02-01T07:01:04;3.80;99.90
17845;DHT22;9047;53.486;10.218;2023-02-01T07:03:33;3.90;99.90
17845;DHT22;9047;53.486;10.218;2023-02-01T07:06:11;3.90;99.90
17845;DHT22;9047;53.486;10.218;2023-02-01T07:08:39;4.00;99.90
17845;DHT22;9047;53.486;10.218;2023-02-01T07:11:18;4.10;99.90
17845;DHT22;9047;53.486;10.218;2023-02-01T07:13:46;4.20;99.90
17845;DHT22;9047;53.486;10.218;2023-02-01T07:16:38;4.20;99.90
17845;DHT22;9047;53.486;10.218;2023-02-01T07:19:22;4.20;99.90
17845;DHT22;9047;53.486;10.218;2023-02-01T07:22:03;4.30;99.90
17845;DHT22;9047;53.486;10.218;2023-02-01T07:24:35;4.40;99.90
17845;DHT22;9047;53.486;10.218;2023-02-01T07:27:12;4.40;99.90
17845;DHT22;9047;53.486;10.218;2023-02-01T07:29:47;4.50;99.90
17845;DHT22;9047;53.486;10.218;2023-02-01T07:32:24;4.50;99.90
17845;DHT22;9047;53.486;10.218;2023-02-01T07:35:15;4.50;99.90
17845;DHT22;9047;53.486;10.218;2023-02-01T07:37:52;4.60;99.90
17845;DHT22;9047;53.486;10.218;2023-02-01T07:40:24;4.60;99.90
17845;DHT22;9047;53.486;10.218;2023-02-01T07:42:57;4.60;99.90
17845;DHT22;9047;53.486;10.218;2023-02-01T07:45:33;4.70;99.90
17845;DHT22;9047;53.486;10.218;2023-02-01T07:48:14;4.70;99.90
17845;DHT22;9047;53.486;10.218;2023-02-01T07:50:57;4.70;99.90
17845;DHT22;9047;53.486;10.218;2023-02-01T07:53:40;4.80;99.90
17845;DHT22;9047;53.486;10.218;2023-02-01T07:56:29;4.80;99.90
17845;DHT22;9047;53.486;10.218;2023-02-01T07:59:08;4.80;99.90
17845;DHT22;9047;53.486;10.218;2023-02-01T08:01:56;4.90;99.90
17845;DHT22;9047;53.486;10.218;2023-02-01T08:04:26;4.90;99.90
17845;DHT22;9047;53.486;10.218;2023-02-01T08:06:59;4.90;99.90
17845;DHT22;9047;53.486;10.218;2023-02-01T08:09:31;5.00;99.90
17845;DHT22;9047;53.486;10.218;2023-02-01T08:12:03;5.00;99.90
17845;DHT22;9047;53.486;10.218;2023-02-01T08:14:47;5.10;99.90
17845;DHT22;9047;53.486;10.218;2023-02-01T08:17:31;5.20;99.90
17845;DHT22;9047;53.486;10.218;2023-02-01T08:20:03;5.20;99.90
17845;DHT22;9047;53.486;10.218;2023-02-01T08:22:36;5.20;99.90
17845;DHT22;9047;53.486;10.218;2023-02-01T08:25:15;5.30;99.90
17845;DHT22;9047;53.486;10.218;2023-02-01T08:27:50;5.30;99.90
17845;DHT22;9047;53.486;10.218;2023-02-01T08:30:27;5.40;99.90
17845;DHT22;9047;53.486;10.218;2023-02-01T08:33:01;5.40;99.90
17845;DHT22;9047;53.486;10.218;2023-02-01T08:36:04;5.50;99.90
17845;DHT22;9047;53.486;10.218;2023-02-01T08:38:43;5.50;99.90
17845;DHT22;9047;53.486;10.218;2023-02-01T08:41:22;5.60;99.90
17845;DHT22;9047;53.486;10.218;2023-02-01T08:44:07;5.70;99.90
17845;DHT22;9047;53.486;10.218;2023-02-01T08:46:50;5.90;99.90
17845;DHT22;9047;53.486;10.218;2023-02-01T08:49:18;6.10;99.90
17845;DHT22;9047;53.486;10.218;2023-02-01T08:51:50;6.30;99.90
17845;DHT22;9047;53.486;10.218;2023-02-01T08:54:27;6.40;99.90
17845;DHT22;9047;53.486;10.218;2023-02-01T08:57:02;6.50;99.90
17845;DHT22;9047;53.486;10.218;2023-02-01T08:59:59;6.40;99.90
17845;DHT22;9047;53.486;10.218;2023-02-01T09:02:42;6.30;99.90
17845;DHT22;9047;53.486;10.218;2023-02-01T09:05:10;6.20;99.90
17845;DHT22;9047;53.486;10.218;2023-02-01T09:07:50;6.20;99.90
17845;DHT22;9047;53.486;10.218;2023-02-01T09:10:20;6.20;99.90
17845;DHT22;9047;53.486;10.218;2023-02-01T09:12:50;6.10;99.90
17845;DHT22;9047;53.486;10.218;2023-02-01T09:15:23;6.10;99.90
17845;DHT22;9047;53.486;10.218;2023-02-01T09:18:10;6.40;99.90
17845;DHT22;9047;53.486;10.218;2023-02-01T09:20:43;6.30;99.90
17845;DHT22;9047;53.486;10.218;2023-02-01T09:23:10;6.40;99.90
17845;DHT22;9047;53.486;10.218;2023-02-01T09:25:37;6.40;99.90
17845;DHT22;9047;53.486;10.218;2023-02-01T09:28:04;6.50;99.90
17845;DHT22;9047;53.486;10.218;2023-02-01T09:30:33;6.50;99.90
17845;DHT22;9047;53.486;10.218;2023-02-01T09:33:02;6.50;99.90
17845;DHT22;9047;53.486;10.218;2023-02-01T09:35:31;6.60;99.90
17845;DHT22;9047;53.486;10.218;2023-02-01T09:37:59;6.60;99.90
17845;DHT22;9047;53.486;10.218;2023-02-01T09:40:39;6.60;99.90
17845;DHT22;9047;53.486;10.218;2023-02-01T09:43:21;6.60;99.90
17845;DHT22;9047;53.486;10.218;2023-02-01T09:46:00;6.50;99.90
17845;DHT22;9047;53.486;10.218;2023-02-01T09:48:39;6.40;99.90
17845;DHT22;9047;53.486;10.218;2023-02-01T09:54:54;6.40;99.90
17845;DHT22;9047;53.486;10.218;2023-02-01T09:57:40;6.40;99.90
17845;DHT22;9047;53.486;10.218;2023-02-01T10:00:20;6.40;99.90
17845;DHT22;9047;53.486;10.218;2023-02-01T10:02:55;6.40;99.90
17845;DHT22;9047;53.486;10.218;2023-02-01T10:05:54;6.70;99.90
17845;DHT22;9047;53.486;10.218;2023-02-01T10:08:39;6.70;99.90
17845;DHT22;9047;53.486;10.218;2023-02-01T10:11:40;6.80;99.90
17845;DHT22;9047;53.486;10.218;2023-02-01T10:14:43;6.90;99.90
17845;DHT22;9047;53.486;10.218;2023-02-01T10:17:30;7.10;99.90
17845;DHT22;9047;53.486;10.218;2023-02-01T10:20:15;7.20;99.90
17845;DHT22;9047;53.486;10.218;2023-02-01T10:22:59;7.40;99.90
17845;DHT22;9047;53.486;10.218;2023-02-01T10:25:47;7.40;99.90
17845;DHT22;9047;53.486;10.218;2023-02-01T10:28:18;7.50;99.90
17845;DHT22;9047;53.486;10.218;2023-02-01T10:30:58;7.60;99.90
17845;DHT22;9047;53.486;10.218;2023-02-01T10:33:39;7.60;99.90
17845;DHT22;9047;53.486;10.218;2023-02-01T10:36:15;7.60;99.90
17845;DHT22;9047;53.486;10.218;2023-02-01T10:38:48;7.50;99.90
17845;DHT22;9047;53.486;10.218;2023-02-01T10:41:22;7.50;99.90
17845;DHT22;9047;53.486;10.218;2023-02-01T10:43:57;7.40;99.90
17845;DHT22;9047;53.486;10.218;2023-02-01T10:46:30;7.30;99.90
17845;DHT22;9047;53.486;10.218;2023-02-01T10:49:16;7.10;99.90
17845;DHT22;9047;53.486;10.218;2023-02-01T10:51:54;7.00;99.90
17845;DHT22;9047;53.486;10.218;2023-02-01T10:54:51;6.80;99.90
17845;DHT22;9047;53.486;10.218;2023-02-01T10:57:23;6.70;99.90
17845;DHT22;9047;53.486;10.218;2023-02-01T11:00:00;6.60;99.90
17845;DHT22;9047;53.486;10.218;2023-02-01T11:02:36;6.50;99.90
17845;DHT22;9047;53.486;10.218;2023-02-01T11:05:09;6.50;99.90
17845;DHT22;9047;53.486;10.218;2023-02-01T11:07:51;6.40;99.90
17845;DHT22;9047;53.486;10.218;2023-02-01T11:10:38;6.40;99.90
17845;DHT22;9047;53.486;10.218;2023-02-01T11:13:14;6.40;99.90
17845;DHT22;9047;53.486;10.218;2023-02-01T11:15:57;6.30;99.90
17845;DHT22;9047;53.486;10.218;2023-02-01T11:18:32;6.30;99.90
17845;DHT22;9047;53.486;10.218;2023-02-01T11:24:25;6.30;99.90
17845;DHT22;9047;53.486;10.218;2023-02-01T11:26:55;6.40;99.90
17845;DHT22;9047;53.486;10.218;2023-02-01T11:29:31;6.40;99.90
17845;DHT22;9047;53.486;10.218;2023-02-01T11:32:20;6.50;99.90
17845;DHT22;9047;53.486;10.218;2023-02-01T11:34:51;6.60;99.90
17845;DHT22;9047;53.486;10.218;2023-02-01T11:37:31;6.60;99.90
17845;DHT22;9047;53.486;10.218;2023-02-01T11:40:01;6.60;99.90
17845;DHT22;9047;53.486;10.218;2023-02-01T11:42:35;6.60;99.90
17845;DHT22;9047;53.486;10.218;2023-02-01T11:45:43;6.70;99.90
17845;DHT22;9047;53.486;10.218;2023-02-01T11:48:45;6.70;99.90
17845;DHT22;9047;53.486;10.218;2023-02-01T11:54:15;6.80;99.90
17845;DHT22;9047;53.486;10.218;2023-02-01T11:57:00;6.80;99.90
17845;DHT22;9047;53.486;10.218;2023-02-01T11:59:51;6.80;99.90
17845;DHT22;9047;53.486;10.218;2023-02-01T12:02:49;6.90;99.90
17845;DHT22;9047;53.486;10.218;2023-02-01T12:05:46;6.90;99.90
17845;DHT22;9047;53.486;10.218;2023-02-01T12:08:49;7.00;99.90
17845;DHT22;9047;53.486;10.218;2023-02-01T12:14:59;6.90;99.90
17845;DHT22;9047;53.486;10.218;2023-02-01T12:17:46;6.90;99.90
17845;DHT22;9047;53.486;10.218;2023-02-01T12:23:26;6.70;99.90
17845;DHT22;9047;53.486;10.218;2023-02-01T12:26:08;6.60;99.90
17845;DHT22;9047;53.486;10.218;2023-02-01T12:32:00;6.40;99.90
17845;DHT22;9047;53.486;10.218;2023-02-01T12:38:09;6.30;99.90
17845;DHT22;9047;53.486;10.218;2023-02-01T12:40:53;6.20;99.90
17845;DHT22;9047;53.486;10.218;2023-02-01T12:43:36;6.20;99.90
17845;DHT22;9047;53.486;10.218;2023-02-01T12:46:14;6.20;99.90
17845;DHT22;9047;53.486;10.218;2023-02-01T12:49:05;6.10;99.90
17845;DHT22;9047;53.486;10.218;2023-02-01T12:51:44;6.10;99.90
17845;DHT22;9047;53.486;10.218;2023-02-01T12:54:19;6.00;99.90
17845;DHT22;9047;53.486;10.218;2023-02-01T12:57:02;5.90;99.90
17845;DHT22;9047;53.486;10.218;2023-02-01T12:59:42;5.80;99.90
17845;DHT22;9047;53.486;10.218;2023-02-01T13:02:26;5.70;99.90
17845;DHT22;9047;53.486;10.218;2023-02-01T13:05:04;5.60;99.90
17845;DHT22;9047;53.486;10.218;2023-02-01T13:07:49;5.50;99.90
17845;DHT22;9047;53.486;10.218;2023-02-01T13:10:32;5.50;99.90
17845;DHT22;9047;53.486;10.218;2023-02-01T13:13:14;5.40;99.90
17845;DHT22;9047;53.486;10.218;2023-02-01T13:16:13;5.30;99.90
17845;DHT22;9047;53.486;10.218;2023-02-01T13:18:55;5.20;99.90
17845;DHT22;9047;53.486;10.218;2023-02-01T13:21:31;5.20;99.90
17845;DHT22;9047;53.486;10.218;2023-02-01T13:24:06;5.10;99.90
17845;DHT22;9047;53.486;10.218;2023-02-01T13:26:49;5.10;99.90
17845;DHT22;9047;53.486;10.218;2023-02-01T13:29:22;5.10;99.90
17845;DHT22;9047;53.486;10.218;2023-02-01T13:32:05;5.10;99.90
17845;DHT22;9047;53.486;10.218;2023-02-01T13:40:59;5.50;99.90
17845;DHT22;9047;53.486;10.218;2023-02-01T13:43:40;5.70;99.90
17845;DHT22;9047;53.486;10.218;2023-02-01T13:46:26;5.80;99.90
17845;DHT22;9047;53.486;10.218;2023-02-01T13:48:57;5.90;99.90
17845;DHT22;9047;53.486;10.218;2023-02-01T13:51:36;5.90;99.90
17845;DHT22;9047;53.486;10.218;2023-02-01T13:54:25;6.00;99.90
17845;DHT22;9047;53.486;10.218;2023-02-01T13:56:57;6.10;99.90
17845;DHT22;9047;53.486;10.218;2023-02-01T13:59:53;6.20;99.90
17845;DHT22;9047;53.486;10.218;2023-02-01T14:09:30;6.50;99.90
17845;DHT22;9047;53.486;10.218;2023-02-01T14:15:25;6.30;99.90
17845;DHT22;9047;53.486;10.218;2023-02-01T14:21:16;6.60;99.90
17845;DHT22;9047;53.486;10.218;2023-02-01T14:24:14;6.80;99.90
17845;DHT22;9047;53.486;10.218;2023-02-01T14:26:52;6.90;99.90
17845;DHT22;9047;53.486;10.218;2023-02-01T14:29:31;6.80;99.90
17845;DHT22;9047;53.486;10.218;2023-02-01T14:32:16;6.70;99.90
17845;DHT22;9047;53.486;10.218;2023-02-01T14:34:51;6.50;99.90
17845;DHT22;9047;53.486;10.218;2023-02-01T14:37:30;6.40;99.90
17845;DHT22;9047;53.486;10.218;2023-02-01T14:40:03;6.20;99.90
17845;DHT22;9047;53.486;10.218;2023-02-01T14:42:38;6.10;99.90
17845;DHT22;9047;53.486;10.218;2023-02-01T14:48:46;5.90;99.90
17845;DHT22;9047;53.486;10.218;2023-02-01T14:51:23;5.80;99.90
17845;DHT22;9047;53.486;10.218;2023-02-01T14:54:12;5.70;99.90
17845;DHT22;9047;53.486;10.218;2023-02-01T14:56:44;5.50;99.90
17845;DHT22;9047;53.486;10.218;2023-02-01T14:59:16;5.20;99.90
17845;DHT22;9047;53.486;10.218;2023-02-01T15:01:52;5.10;99.90
17845;DHT22;9047;53.486;10.218;2023-02-01T15:04:26;5.00;99.90
17845;DHT22;9047;53.486;10.218;2023-02-01T15:06:58;4.90;99.90
17845;DHT22;9047;53.486;10.218;2023-02-01T15:09:38;4.90;99.90
17845;DHT22;9047;53.486;10.218;2023-02-01T15:12:24;4.90;99.90
17845;DHT22;9047;53.486;10.218;2023-02-01T15:15:17;4.90;99.90
17845;DHT22;9047;53.486;10.218;2023-02-01T15:18:02;4.80;99.90
17845;DHT22;9047;53.486;10.218;2023-02-01T15:20:37;4.70;99.90
17845;DHT22;9047;53.486;10.218;2023-02-01T15:23:16;4.70;99.90
17845;DHT22;9047;53.486;10.218;2023-02-01T15:25:51;4.60;99.90
17845;DHT22;9047;53.486;10.218;2023-02-01T15:28:21;4.60;99.90
17845;DHT22;9047;53.486;10.218;2023-02-01T15:30:54;4.60;99.90
17845;DHT22;9047;53.486;10.218;2023-02-01T15:33:26;4.60;99.90
17845;DHT22;9047;53.486;10.218;2023-02-01T15:36:16;4.60;99.90
17845;DHT22;9047;53.486;10.218;2023-02-01T15:38:44;4.50;99.90
17845;DHT22;9047;53.486;10.218;2023-02-01T15:41:17;4.50;99.90
17845;DHT22;9047;53.486;10.218;2023-02-01T15:44:04;4.50;99.90
17845;DHT22;9047;53.486;10.218;2023-02-01T15:46:40;4.50;99.90
17845;DHT22;9047;53.486;10.218;2023-02-01T15:49:20;4.40;99.90
17845;DHT22;9047;53.486;10.218;2023-02-01T15:51:52;4.40;99.90
17845;DHT22;9047;53.486;10.218;2023-02-01T15:54:24;4.20;99.90
17845;DHT22;9047;53.486;10.218;2023-02-01T15:56:57;4.30;99.90
17845;DHT22;9047;53.486;10.218;2023-02-01T15:59:45;4.30;99.90
17845;DHT22;9047;53.486;10.218;2023-02-01T16:02:28;4.30;99.90
17845;DHT22;9047;53.486;10.218;2023-02-01T16:05:02;4.30;99.90
17845;DHT22;9047;53.486;10.218;2023-02-01T16:07:46;4.30;99.90
17845;DHT22;9047;53.486;10.218;2023-02-01T16:10:26;4.40;99.90
17845;DHT22;9047;53.486;10.218;2023-02-01T16:12:59;4.40;99.90
17845;DHT22;9047;53.486;10.218;2023-02-01T16:15:45;4.40;99.90
17845;DHT22;9047;53.486;10.218;2023-02-01T16:18:16;4.50;99.90
17845;DHT22;9047;53.486;10.218;2023-02-01T16:20:44;4.50;99.90
17845;DHT22;9047;53.486;10.218;2023-02-01T16:23:17;4.50;99.90
17845;DHT22;9047;53.486;10.218;2023-02-01T16:25:52;4.50;99.90
17845;DHT22;9047;53.486;10.218;2023-02-01T16:28:29;4.60;99.90
17845;DHT22;9047;53.486;10.218;2023-02-01T16:30:59;4.50;99.90
17845;DHT22;9047;53.486;10.218;2023-02-01T16:33:32;4.50;99.90
17845;DHT22;9047;53.486;10.218;2023-02-01T16:36:05;4.50;99.90
17845;DHT22;9047;53.486;10.218;2023-02-01T16:38:35;4.50;99.90
17845;DHT22;9047;53.486;10.218;2023-02-01T16:41:06;4.50;99.90
17845;DHT22;9047;53.486;10.218;2023-02-01T16:43:41;4.50;99.90
17845;DHT22;9047;53.486;10.218;2023-02-01T16:46:14;4.50;99.90
17845;DHT22;9047;53.486;10.218;2023-02-01T16:48:53;4.50;99.90
17845;DHT22;9047;53.486;10.218;2023-02-01T16:51:29;4.50;99.90
17845;DHT22;9047;53.486;10.218;2023-02-01T16:54:07;4.50;99.90
17845;DHT22;9047;53.486;10.218;2023-02-01T16:56:41;4.50;99.90
17845;DHT22;9047;53.486;10.218;2023-02-01T16:59:11;4.60;99.90
17845;DHT22;9047;53.486;10.218;2023-02-01T17:01:47;4.60;99.90
17845;DHT22;9047;53.486;10.218;2023-02-01T17:04:18;4.60;99.90
17845;DHT22;9047;53.486;10.218;2023-02-01T17:06:49;4.60;99.90
17845;DHT22;9047;53.486;10.218;2023-02-01T17:09:26;4.60;99.90
17845;DHT22;9047;53.486;10.218;2023-02-01T17:11:58;4.50;99.90
17845;DHT22;9047;53.486;10.218;2023-02-01T17:14:34;4.50;99.90
17845;DHT22;9047;53.486;10.218;2023-02-01T17:17:10;4.60;99.90
17845;DHT22;9047;53.486;10.218;2023-02-01T17:19:53;4.70;99.90
17845;DHT22;9047;53.486;10.218;2023-02-01T17:22:22;4.80;99.90
17845;DHT22;9047;53.486;10.218;2023-02-01T17:24:53;4.80;99.90
17845;DHT22;9047;53.486;10.218;2023-02-01T17:27:33;4.80;99.90